x

Nanakwa Shoal (46181) Wave Buoy

10:00am - Thu 2nd Jul 2015 All times are PDT. -7 hours from GMT.

  • Sig Wave height 0.3ft
  • Peak Period 2s
  • Wind
    9mph, 11mph gusts
  • Sea Temp 65°f
  • Air Temp 64°f
  • Sea Pressure 1021.7mb
  • Nanakwa Shoal
  • Nanakwa Shoal

More Historic Weather Station data

Upgrade to MSW Pro to gain access to the past 30 days of data for over 8000 Wavebouys and Weather Stations around the globe.

Join Pro

Comparision Forecast

View Surf forecast
   
Thu 07/02 10:00am 0.3ft 2s 9 11 mph 1021.7mb 65f 64f
9:00am 0.3ft 2s 13 18 mph 1021.7mb 65f 64f
8:00am 0.3ft 2s 9 13 mph 1021.6mb 65f 63f
7:00am 0.3ft 2s 9 13 mph 1021.5mb 65f 63f
6:00am 0.3ft 2s 9 13 mph 1021.3mb 65f 63f
4:00am 0.3ft 2s 13 16 mph 1020.6mb 65f 64f
3:00am 0.3ft 2s 11 16 mph 1020.3mb 65f 64f
2:00am 0.7ft 2s 13 18 mph 1020mb 65f 65f
1:00am 0.3ft 2s 13 18 mph 1019.7mb 65f 67f
12:00am 0.3ft 2s 16 22 mph 1019.5mb 66f 69f
Wed 07/01 10:00pm 0.7ft 2s 16 18 mph 1019.1mb 66f 70f
9:00pm 1ft 3s 13 16 mph 1018.6mb 66f 70f
8:00pm 1ft 2s 18 22 mph 1018.4mb 66f 72f
7:00pm 0.7ft 3s 18 20 mph 1018.5mb 67f 71f
6:00pm 0.7ft 2s 13 16 mph 1018.8mb 67f 72f
5:00pm 0.7ft 2s 18 20 mph 1019mb 68f 73f
4:00pm 0.7ft 2s 16 18 mph 1019.3mb 68f 72f
3:00pm 0.3ft 2s 16 18 mph 1019.8mb 68f 71f
2:00pm  -  2s 9 13 mph 1020.3mb 69f 69f
1:00pm  -  2s 4
mph
1020.8mb 69f 69f
12:00pm  -  2s 2
mph
1021.2mb 68f 66f
11:00am  -  2s  -  2 mph 1021.9mb 67f 67f
10:00am  -  2s  -  2 mph 1022.7mb 66f 64f
9:00am  -  2s 4
mph
1023.1mb 65f 62f
8:00am  -  2s 9 11 mph 1023.3mb 65f 60f
7:00am  -  2s 9 11 mph 1023.3mb 64f 60f
6:00am 0.3ft 6s 4 7 mph 1023.5mb 64f 60f
5:00am 0.3ft 2s 2 4 mph 1023.6mb 63f 60f
4:00am 0.3ft 2s 4 7 mph 1023.4mb 64f 60f
3:00am 0.3ft 2s 7 11 mph 1023.4mb 64f 61f
2:00am 0.3ft 2s 9 13 mph 1023.1mb 64f 62f
1:00am 0.3ft 2s 13 16 mph 1022.8mb 64f 64f
12:00am 0.3ft 2s 13 18 mph 1022.6mb 65f 64f
Tue 06/30 10:00pm 0.7ft 2s 18 22 mph 1021.9mb 65f 66f
9:00pm 0.7ft 2s 18 22 mph 1021.6mb 64f 67f
8:00pm 0.7ft 2s 20 25 mph 1021.2mb 64f 68f
7:00pm 0.7ft 2s 22 25 mph 1020.9mb 64f 68f
6:00pm 0.7ft 2s 22 27 mph 1020.8mb 64f 69f
5:00pm 0.7ft 2s 20 22 mph 1020.7mb 65f 68f
3:00pm 0.7ft 2s 20 22 mph 1020.7mb 65f 68f
2:00pm 0.7ft 2s 22 27 mph 1020.7mb 65f 67f
1:00pm 0.7ft 2s 18 20 mph 1020.9mb 65f 66f
12:00pm 0.7ft 2s 18 22 mph 1021.1mb 65f 66f
11:00am 0.7ft 2s 18 20 mph 1020.9mb 65f 65f
10:00am 0.7ft 2s 16 18 mph 1021mb 65f 64f
9:00am 0.7ft 3s 16 18 mph 1020.9mb 64f 63f
8:00am 0.7ft 2s 18 20 mph 1020.8mb 64f 63f
7:00am 0.7ft 2s 18 22 mph 1020.4mb 64f 63f
6:00am 0.7ft 2s 16 20 mph 1020.1mb 64f 63f
5:00am 0.3ft 2s 11 16 mph 1019.7mb 65f 64f
4:00am 0.7ft 2s 16 20 mph 1019.2mb 65f 64f
3:00am 0.7ft 2s 16 20 mph 1018.8mb 65f 65f
2:00am 0.7ft 2s 18 20 mph 1018.4mb 65f 66f
1:00am 0.3ft 2s 16 20 mph 1018mb 65f 67f
12:00am 0.7ft 2s 13 16 mph 1017.5mb 65f 68f
Mon 06/29 11:00pm 0.3ft 2s 18 22 mph 1016.8mb 65f 69f
10:00pm 0.7ft 2s 9
mph
1016.6mb 65f 68f
9:00pm 0.7ft 2s 16 18 mph 1015.7mb 65f 70f
8:00pm 0.7ft 2s 20 25 mph 1015.4mb 66f 72f
7:00pm 0.7ft 2s 20 22 mph 1015.3mb 66f 73f
6:00pm 0.3ft 2s 13 18 mph 1015.4mb 67f 71f
5:00pm 0.7ft 3s 16 18 mph 1015.5mb 66f 72f
4:00pm 0.7ft 2s 16 18 mph 1015.7mb 66f 72f
3:00pm 0.7ft 2s 16 18 mph 1015.9mb 66f 70f
2:00pm 0.3ft 3s 18 20 mph 1015.5mb 66f 71f
1:00pm 0.7ft 2s 11 13 mph 1015.3mb 66f 70f
12:00pm 0.3ft 2s 16 18 mph 1015mb 66f 69f
11:00am 0.3ft 2s 13 18 mph 1014.9mb 66f 68f
10:00am  -  2s 11 13 mph 1015.1mb 67f 67f
9:00am  -  2s 9
mph
1015.5mb 67f 65f
8:00am  -  2s 4 7 mph 1015.7mb 65f 65f
7:00am  -  2s 2
mph
1015.8mb 65f 64f
6:00am  -  4s 2 4 mph 1015.4mb 65f 64f
5:00am  -  4s  -  2 mph 1015.2mb 65f 64f
4:00am  -  4s  -  mph 1014.8mb 66f 65f
3:00am  -  4s 4
mph
1014.6mb 66f 65f
2:00am  -  2s  -  2 mph 1014.2mb 66f 66f
1:00am  -  2s 2
mph
1013.7mb 67f 67f
12:00am 0.3ft 2s 2 4 mph 1013.7mb 67f 68f
Sun 06/28 11:00pm 0.3ft 2s 4 7 mph 1013.4mb 67f 70f
10:00pm 0.3ft 2s 7 9 mph 1013.2mb 67f 72f
9:00pm 0.3ft 2s 7 11 mph 1013.3mb 67f 71f
8:00pm 0.3ft 2s 7 11 mph 1013.6mb 68f 74f
7:00pm 0.3ft 2s 11 13 mph 1013.9mb 67f 75f